Time;durP1;ratioP1;P1;durP2;ratioP2;P2;SDS_P1;SDS_P2;PMS_P1;PMS_P2;Temp;Humidity;BMP_temperature;BMP_pressure;BME280_temperature;BME280_humidity;BME280_pressure;Samples;Min_cycle;Max_cycle;Signal;HPM_P1;HPM_P2
2022/11/28 00:01:16;;;;;;;8.98;8.57;;;;;;;-143.83;100.00;62900.06;4912632;29;20435;-72
2022/11/28 00:03:42;;;;;;;8.55;8.15;;;;;;;-143.83;100.00;62900.06;4930591;29;20491;-72
2022/11/28 00:06:07;;;;;;;9.85;9.35;;;;;;;-143.83;100.00;62900.06;4929318;29;20058;-73
2022/11/28 00:08:34;;;;;;;8.80;8.40;;;;;;;-143.83;100.00;62900.06;4931984;29;20031;-73
2022/11/28 00:11:04;;;;;;;8.80;8.40;;;;;;;-143.83;100.00;62900.06;4916555;29;20061;-74
2022/11/28 00:13:30;;;;;;;9.20;8.80;;;;;;;-143.83;100.00;62900.06;4927588;29;20032;-75
2022/11/28 00:16:01;;;;;;;8.68;8.27;;;;;;;-143.83;100.00;62900.06;4937063;29;20372;-74
2022/11/28 00:18:28;;;;;;;9.32;8.93;;;;;;;-143.83;100.00;62900.06;4933090;29;20034;-74
2022/11/28 00:21:06;;;;;;;8.85;8.45;;;;;;;-143.83;100.00;62900.06;4924793;29;20031;-74
2022/11/28 00:23:32;;;;;;;8.50;8.10;;;;;;;-143.83;100.00;62900.06;4928806;29;20028;-74
2022/11/28 00:26:03;;;;;;;9.10;8.70;;;;;;;-143.83;100.00;62900.06;4909284;29;20032;-74
2022/11/28 00:28:28;;;;;;;8.88;8.48;;;;;;;-143.83;100.00;62900.06;4926764;29;20047;-74
2022/11/28 00:30:54;;;;;;;9.25;8.85;;;;;;;-143.83;100.00;62900.06;4910124;29;20027;-73
2022/11/28 00:33:19;;;;;;;8.85;8.45;;;;;;;-143.83;100.00;62900.06;4930008;29;20035;-73
2022/11/28 00:35:45;;;;;;;9.10;8.70;;;;;;;-143.83;100.00;62900.06;4924161;29;20020;-73
2022/11/28 00:38:11;;;;;;;8.90;8.50;;;;;;;-143.83;100.00;62900.06;4925062;29;20499;-72
2022/11/28 00:40:36;;;;;;;8.75;8.35;;;;;;;-143.83;100.00;62900.06;4927720;29;20076;-73
2022/11/28 00:43:02;;;;;;;9.63;9.13;;;;;;;-143.83;100.00;62900.06;4930621;29;20439;-73
2022/11/28 00:45:27;;;;;;;8.60;8.20;;;;;;;-143.83;100.00;62900.06;4927492;29;20492;-72
2022/11/28 00:47:53;;;;;;;8.57;8.18;;;;;;;-143.83;100.00;62900.06;4927350;29;20031;-72
2022/11/28 00:50:18;;;;;;;9.05;8.65;;;;;;;-143.83;100.00;62900.06;4914131;29;20051;-73
2022/11/28 00:52:44;;;;;;;8.80;8.40;;;;;;;-143.83;100.00;62900.06;4931430;29;20395;-73
2022/11/28 00:55:10;;;;;;;8.82;8.43;;;;;;;-143.83;100.00;62900.06;4928369;29;20480;-72
2022/11/28 00:57:36;;;;;;;8.55;8.15;;;;;;;-143.83;100.00;62900.06;4925082;29;20399;-71
2022/11/28 01:00:04;;;;;;;9.10;8.70;;;;;;;-143.83;100.00;62900.06;4931920;29;20051;-71
2022/11/28 01:02:30;;;;;;;8.77;8.38;;;;;;;-143.83;100.00;62900.06;4929855;29;20100;-71
2022/11/28 01:04:55;;;;;;;8.90;8.50;;;;;;;-143.83;100.00;62900.06;4914975;29;20035;-71
2022/11/28 01:07:21;;;;;;;8.80;8.40;;;;;;;-143.83;100.00;62900.06;4913152;29;20442;-73
2022/11/28 01:09:46;;;;;;;8.70;8.30;;;;;;;-143.83;100.00;62900.06;4923330;29;20395;-71
2022/11/28 01:12:12;;;;;;;9.30;8.85;;;;;;;-143.83;100.00;62900.06;4928917;29;20071;-73
2022/11/28 01:14:37;;;;;;;8.57;8.18;;;;;;;-143.83;100.00;62900.06;4925761;29;20047;-72
2022/11/28 01:17:03;;;;;;;10.00;9.50;;;;;;;-143.83;100.00;62900.06;4922005;29;20031;-73
2022/11/28 01:19:28;;;;;;;9.27;8.88;;;;;;;-143.83;100.00;62900.06;4907990;29;20024;-73
2022/11/28 01:21:53;;;;;;;8.88;8.48;;;;;;;-143.83;100.00;62900.06;4922494;29;20088;-73
2022/11/28 01:24:19;;;;;;;9.05;8.65;;;;;;;-143.83;100.00;62900.06;4910061;29;20073;-73
2022/11/28 01:26:44;;;;;;;8.95;8.55;;;;;;;-143.83;100.00;62900.06;4925248;29;20109;-73
2022/11/28 01:29:10;;;;;;;9.10;8.70;;;;;;;-143.83;100.00;62900.06;4926512;29;20020;-73
2022/11/28 01:31:36;;;;;;;9.23;8.82;;;;;;;-143.83;100.00;62900.06;4922834;29;20032;-72
2022/11/28 01:34:02;;;;;;;9.20;8.80;;;;;;;-143.83;100.00;62900.06;4929092;29;20052;-74
2022/11/28 01:36:28;;;;;;;8.57;8.18;;;;;;;-143.83;100.00;62900.06;4922196;29;20042;-72
2022/11/28 01:38:53;;;;;;;8.80;8.40;;;;;;;-143.83;100.00;62900.06;4927766;29;20035;-73
2022/11/28 01:41:23;;;;;;;8.90;8.50;;;;;;;-143.83;100.00;62900.06;4925466;29;20039;-73
2022/11/28 01:44:05;;;;;;;8.80;8.40;;;;;;;-143.83;100.00;62900.06;4908232;29;20510;-73
2022/11/28 01:46:32;;;;;;;8.57;8.18;;;;;;;-143.83;100.00;62900.06;4931207;29;20032;-73
2022/11/28 01:49:14;;;;;;;8.60;8.20;;;;;;;-143.83;100.00;62900.06;4926597;29;20134;-72
2022/11/28 01:51:45;;;;;;;8.90;8.50;;;;;;;-143.83;100.00;62900.06;4929777;29;20032;-72
2022/11/28 01:54:11;;;;;;;8.90;8.50;;;;;;;-143.83;100.00;62900.06;4910370;29;20376;-73
2022/11/28 01:56:43;;;;;;;9.35;8.95;;;;;;;-143.83;100.00;62900.06;4911746;29;20027;-73
2022/11/28 01:59:13;;;;;;;8.93;8.52;;;;;;;-143.83;100.00;62900.06;4928773;29;20577;-73
2022/11/28 02:01:39;;;;;;;8.75;8.35;;;;;;;-143.83;100.00;62900.06;4924911;29;20036;-72
2022/11/28 02:04:05;;;;;;;9.00;8.60;;;;;;;-143.83;100.00;62900.06;4924551;29;20043;-72
2022/11/28 02:06:32;;;;;;;8.52;8.13;;;;;;;-143.83;100.00;62900.06;4928636;29;20103;-71
2022/11/28 02:08:57;;;;;;;8.88;8.48;;;;;;;-143.83;100.00;62900.06;4932161;29;20039;-71
2022/11/28 02:11:47;;;;;;;8.77;8.38;;;;;;;-143.83;100.00;62900.06;4911209;29;20024;-72
2022/11/28 02:14:48;;;;;;;8.95;8.55;;;;;;;-143.83;100.00;62900.06;4929842;29;20032;-71
2022/11/28 02:17:38;;;;;;;8.90;8.50;;;;;;;-143.83;100.00;62900.06;4901345;29;20051;-71
2022/11/28 02:20:40;;;;;;;8.50;8.10;;;;;;;-143.83;100.00;62900.06;4923285;29;20023;-73
2022/11/28 02:23:34;;;;;;;9.20;8.80;;;;;;;-143.83;100.00;62900.06;4921173;29;20036;-73
2022/11/28 02:26:50;;;;;;;8.75;8.35;;;;;;;-143.83;100.00;62900.06;4929984;29;20031;-72
2022/11/28 02:29:34;;;;;;;8.50;8.10;;;;;;;-143.83;100.00;62900.06;4889841;29;20508;-72
2022/11/28 02:32:34;;;;;;;8.70;8.30;;;;;;;-143.83;100.00;62900.06;4893901;29;20147;-72
2022/11/28 02:35:20;;;;;;;8.60;8.20;;;;;;;-143.83;100.00;62900.06;4876641;29;20368;-72
2022/11/28 02:38:08;;;;;;;8.70;8.30;;;;;;;-143.83;100.00;62900.06;4890030;29;20516;-73
2022/11/28 02:40:48;;;;;;;8.80;8.40;;;;;;;-143.83;100.00;62900.06;4892742;29;20092;-71
2022/11/28 02:43:30;;;;;;;8.82;8.43;;;;;;;-143.83;100.00;62900.06;4889842;29;20127;-71
2022/11/28 02:46:19;;;;;;;8.68;8.27;;;;;;;-143.83;100.00;62900.06;4894742;29;20127;-71
2022/11/28 02:49:06;;;;;;;8.90;8.50;;;;;;;-143.83;100.00;62900.06;4891792;29;20361;-71
2022/11/28 02:51:47;;;;;;;8.80;8.40;;;;;;;-143.83;100.00;62900.06;4901733;29;20487;-72
2022/11/28 02:54:14;;;;;;;9.30;8.88;;;;;;;-143.83;100.00;62900.06;4911519;29;20107;-72
2022/11/28 02:56:51;;;;;;;8.70;8.30;;;;;;;-143.83;100.00;62900.06;4897930;29;20559;-73
2022/11/28 02:59:25;;;;;;;8.73;8.32;;;;;;;-143.83;100.00;62900.06;4914018;29;20040;-71
2022/11/28 03:01:52;;;;;;;9.40;8.95;;;;;;;-143.83;100.00;62900.06;4912248;29;20032;-72
2022/11/28 03:04:33;;;;;;;8.77;8.38;;;;;;;-143.83;100.00;62900.06;4929075;29;20764;-72
2022/11/28 03:07:10;;;;;;;8.82;8.43;;;;;;;-143.83;100.00;62900.06;4919091;29;20024;-73
2022/11/28 03:09:51;;;;;;;8.75;8.35;;;;;;;-143.83;100.00;62900.06;4924842;29;20039;-72
2022/11/28 03:12:22;;;;;;;8.82;8.43;;;;;;;-143.83;100.00;62900.06;4925030;29;20086;-74
2022/11/28 03:14:52;;;;;;;8.40;8.00;;;;;;;-143.83;100.00;62900.06;4923967;29;20052;-72
2022/11/28 03:17:39;;;;;;;9.10;8.70;;;;;;;-143.83;100.00;62900.06;4922280;29;20376;-72
2022/11/28 03:20:11;;;;;;;8.88;8.48;;;;;;;-143.83;100.00;62900.06;4920919;29;20034;-72
2022/11/28 03:22:54;;;;;;;9.10;8.70;;;;;;;-143.83;100.00;62900.06;4930575;29;20091;-72
2022/11/28 03:25:43;;;;;;;8.95;8.55;;;;;;;-143.83;100.00;62900.06;4924009;29;20036;-72
2022/11/28 03:28:25;;;;;;;9.00;8.60;;;;;;;-143.83;100.00;62900.06;4909540;29;20077;-73
2022/11/28 03:31:02;;;;;;;8.73;8.32;;;;;;;-143.83;100.00;62900.06;4912015;29;20024;-73
2022/11/28 03:33:33;;;;;;;9.93;9.43;;;;;;;-143.83;100.00;62900.06;4892407;29;20084;-73
2022/11/28 03:36:12;;;;;;;8.65;8.25;;;;;;;-143.83;100.00;62900.06;4913790;29;20387;-72
2022/11/28 03:38:43;;;;;;;8.68;8.27;;;;;;;-143.83;100.00;62900.06;4912910;29;20032;-73
2022/11/28 03:41:16;;;;;;;8.75;8.35;;;;;;;-143.83;100.00;62900.06;4914371;29;20032;-73
2022/11/28 03:43:47;;;;;;;8.18;7.85;;;;;;;-143.83;100.00;62900.06;4909633;29;20036;-72
2022/11/28 03:46:17;;;;;;;8.80;8.40;;;;;;;-143.83;100.00;62900.06;4906868;29;20039;-71
2022/11/28 03:48:47;;;;;;;8.63;8.23;;;;;;;-143.83;100.00;62900.06;4911991;29;20119;-72
2022/11/28 03:51:32;;;;;;;9.20;8.80;;;;;;;-143.83;100.00;62900.06;4912896;29;20036;-74
2022/11/28 03:54:07;;;;;;;8.88;8.48;;;;;;;-143.83;100.00;62900.06;4897973;29;20032;-74
2022/11/28 03:56:42;;;;;;;8.70;8.30;;;;;;;-143.83;100.00;62900.06;4911227;29;20033;-73
2022/11/28 03:59:18;;;;;;;9.73;9.23;;;;;;;-143.83;100.00;62900.06;4908747;29;20500;-72
2022/11/28 04:02:00;;;;;;;9.07;8.68;;;;;;;-143.83;100.00;62900.06;4912246;29;20039;-72
2022/11/28 04:04:51;;;;;;;9.05;8.65;;;;;;;-143.83;100.00;62900.06;4910503;29;20028;-72
2022/11/28 04:07:43;;;;;;;9.55;9.05;;;;;;;-143.83;100.00;62900.06;4911627;29;20030;-72
2022/11/28 04:10:08;;;;;;;9.55;9.05;;;;;;;-143.83;100.00;62900.06;4884442;29;20055;-72
2022/11/28 04:12:58;;;;;;;9.18;8.77;;;;;;;-143.83;100.00;62900.06;4894695;29;20032;-72
2022/11/28 04:15:37;;;;;;;9.80;9.30;;;;;;;-143.83;100.00;62900.06;4911441;29;20040;-74
2022/11/28 04:18:20;;;;;;;8.98;8.57;;;;;;;-143.83;100.00;62900.06;4912226;29;20456;-74
2022/11/28 04:20:57;;;;;;;9.38;8.90;;;;;;;-143.83;100.00;62900.06;4908313;29;20111;-73
2022/11/28 04:23:25;;;;;;;9.52;9.02;;;;;;;-143.83;100.00;62900.06;4912519;29;20032;-73
2022/11/28 04:26:06;;;;;;;8.77;8.38;;;;;;;-143.83;100.00;62900.06;4914657;29;20403;-72
2022/11/28 04:28:33;;;;;;;9.38;8.88;;;;;;;-143.83;100.00;62900.06;4934509;29;20479;-70
2022/11/28 04:31:04;;;;;;;9.52;9.02;;;;;;;-143.83;100.00;62900.06;4926109;29;20099;-70
2022/11/28 04:33:34;;;;;;;8.85;8.45;;;;;;;-143.83;100.00;62900.06;4929517;29;20024;-72
2022/11/28 04:36:01;;;;;;;8.75;8.35;;;;;;;-143.83;100.00;62900.06;4906889;29;20501;-72
2022/11/28 04:38:29;;;;;;;8.90;8.50;;;;;;;-143.83;100.00;62900.06;4928184;29;20480;-73
2022/11/28 04:41:04;;;;;;;9.93;9.43;;;;;;;-143.83;100.00;62900.06;4926583;29;20402;-74
2022/11/28 04:43:36;;;;;;;9.57;9.07;;;;;;;-143.83;100.00;62900.06;4928847;29;20028;-71
2022/11/28 04:46:20;;;;;;;8.75;8.35;;;;;;;-143.83;100.00;62900.06;4931396;29;20040;-72
2022/11/28 04:48:45;;;;;;;;;;;;;;;-143.83;100.00;62900.06;4930927;29;20028;-71
2022/11/28 04:51:15;;;;;;;8.85;8.45;;;;;;;-143.83;100.00;62900.06;4919994;29;20446;-72
2022/11/28 04:53:59;;;;;;;8.30;7.90;;;;;;;-143.83;100.00;62900.06;4925931;29;20111;-71
2022/11/28 04:56:30;;;;;;;9.00;8.60;;;;;;;-143.83;100.00;62900.06;4927908;29;20039;-71
2022/11/28 04:58:57;;;;;;;9.50;9.00;;;;;;;-143.83;100.00;62900.06;4929049;29;21189;-72
2022/11/28 05:01:28;;;;;;;8.52;8.13;;;;;;;-143.83;100.00;62900.06;4925210;29;20036;-71
2022/11/28 05:03:54;;;;;;;8.50;8.10;;;;;;;-143.83;100.00;62900.06;4927114;29;20044;-71
2022/11/28 05:06:26;;;;;;;9.07;8.68;;;;;;;-143.83;100.00;62900.06;4932765;29;20058;-70
2022/11/28 05:08:52;;;;;;;9.48;8.98;;;;;;;-143.83;100.00;62900.06;4925008;29;20449;-70
2022/11/28 05:11:19;;;;;;;9.23;8.80;;;;;;;-143.83;100.00;62900.06;4931974;29;20051;-70
2022/11/28 05:13:46;;;;;;;9.52;9.02;;;;;;;-143.83;100.00;62900.06;4921981;29;20031;-69
2022/11/28 05:16:13;;;;;;;9.05;8.65;;;;;;;-143.83;100.00;62900.06;4928901;29;20024;-69
2022/11/28 05:18:38;;;;;;;8.75;8.35;;;;;;;-143.83;100.00;62900.06;4921664;29;20020;-70
2022/11/28 05:21:07;;;;;;;9.25;8.80;;;;;;;-143.83;100.00;62900.06;4932164;29;20456;-70
2022/11/28 05:23:37;;;;;;;9.77;9.27;;;;;;;-143.83;100.00;62900.06;4926588;29;20035;-70
2022/11/28 05:26:07;;;;;;;9.40;8.90;;;;;;;-143.83;100.00;62900.06;4922745;29;20048;-70
2022/11/28 05:28:32;;;;;;;9.07;8.68;;;;;;;-143.83;100.00;62900.06;4920339;29;20032;-69
2022/11/28 05:30:59;;;;;;;9.00;8.60;;;;;;;-143.83;100.00;62900.06;4926094;29;20493;-69
2022/11/28 05:33:24;;;;;;;9.05;8.65;;;;;;;-143.83;100.00;62900.06;4922922;29;20114;-70
2022/11/28 05:35:50;;;;;;;9.02;8.63;;;;;;;-143.83;100.00;62900.06;4911027;29;20123;-70
2022/11/28 05:38:15;;;;;;;9.07;8.68;;;;;;;-143.83;100.00;62900.06;4931339;29;20052;-72
2022/11/28 05:40:43;;;;;;;9.77;9.27;;;;;;;-143.83;100.00;62900.06;4928138;29;20030;-72
2022/11/28 05:43:12;;;;;;;11.20;10.60;;;;;;;-143.83;100.00;62900.06;4929620;29;20391;-72
2022/11/28 05:45:41;;;;;;;8.90;8.50;;;;;;;-143.83;100.00;62900.06;4925972;29;20027;-72
2022/11/28 05:48:07;;;;;;;9.65;9.15;;;;;;;-143.83;100.00;62900.06;4924124;29;20034;-71
2022/11/28 05:50:32;;;;;;;10.63;10.02;;;;;;;-143.83;100.00;62900.06;4918984;29;20447;-72
2022/11/28 05:52:58;;;;;;;9.15;8.75;;;;;;;-143.83;100.00;62900.06;4927441;29;20039;-72
2022/11/28 05:55:23;;;;;;;9.32;8.85;;;;;;;-143.83;100.00;62900.06;4924164;29;20036;-72
2022/11/28 05:57:50;;;;;;;8.73;8.32;;;;;;;-143.83;100.00;62900.06;4923884;29;20055;-73
2022/11/28 06:00:16;;;;;;;10.18;9.65;;;;;;;-143.83;100.00;62900.06;4927643;29;20024;-72
2022/11/28 06:02:41;;;;;;;9.32;8.85;;;;;;;-143.83;100.00;62900.06;4931916;29;20028;-72
2022/11/28 06:05:07;;;;;;;9.15;8.75;;;;;;;-143.83;100.00;62900.06;4927910;29;20032;-72
2022/11/28 06:07:32;;;;;;;9.43;8.93;;;;;;;-143.83;100.00;62900.06;4926705;29;20027;-72
2022/11/28 06:09:58;;;;;;;9.25;8.82;;;;;;;-143.83;100.00;62900.06;4928215;29;20020;-70
2022/11/28 06:12:23;;;;;;;9.10;8.70;;;;;;;-143.83;100.00;62900.06;4927524;29;20054;-70
2022/11/28 06:14:49;;;;;;;10.13;9.63;;;;;;;-143.83;100.00;62900.06;4930295;29;20019;-70
2022/11/28 06:17:14;;;;;;;9.82;9.32;;;;;;;-143.83;100.00;62900.06;4928557;29;20027;-70
2022/11/28 06:19:40;;;;;;;8.90;8.50;;;;;;;-143.83;100.00;62900.06;4924844;29;20108;-70
2022/11/28 06:22:05;;;;;;;9.73;9.23;;;;;;;-143.83;100.00;62900.06;4925803;29;20028;-70
2022/11/28 06:24:31;;;;;;;9.63;9.13;;;;;;;-143.83;100.00;62900.06;4921040;29;20107;-70
2022/11/28 06:26:56;;;;;;;9.80;9.30;;;;;;;-143.83;100.00;62900.06;4909310;29;20055;-69
2022/11/28 06:29:21;;;;;;;9.75;9.25;;;;;;;-143.83;100.00;62900.06;4927726;29;20028;-69
2022/11/28 06:31:47;;;;;;;9.48;8.98;;;;;;;-143.83;100.00;62900.06;4928245;29;20039;-71
2022/11/28 06:34:12;;;;;;;9.80;9.30;;;;;;;-143.83;100.00;62900.06;4928392;29;20086;-66
2022/11/28 06:36:39;;;;;;;9.70;9.20;;;;;;;-143.83;100.00;62900.06;4922799;29;20024;-66
2022/11/28 06:39:04;;;;;;;10.60;10.00;;;;;;;-143.83;100.00;62900.06;4925407;29;20043;-67
2022/11/28 06:41:30;;;;;;;9.85;9.35;;;;;;;-143.83;100.00;62900.06;4924703;29;20521;-68
2022/11/28 06:43:56;;;;;;;9.63;9.13;;;;;;;-143.83;100.00;62900.06;4929213;29;20047;-69
2022/11/28 06:46:22;;;;;;;8.80;8.40;;;;;;;-143.83;100.00;62900.06;4931957;29;20108;-68
2022/11/28 06:48:50;;;;;;;9.82;9.32;;;;;;;-143.83;100.00;62900.06;4926317;29;20107;-68
2022/11/28 06:51:18;;;;;;;9.57;9.07;;;;;;;-143.83;100.00;62900.06;4923384;29;20094;-69
2022/11/28 06:53:43;;;;;;;10.23;9.73;;;;;;;-143.83;100.00;62900.06;4925950;29;20095;-69
2022/11/28 06:56:12;;;;;;;9.48;8.98;;;;;;;-143.83;100.00;62900.06;4925623;29;20027;-69
2022/11/28 06:58:39;;;;;;;8.82;8.43;;;;;;;-143.83;100.00;62900.06;4904119;29;20584;-70
2022/11/28 07:01:13;;;;;;;9.82;9.32;;;;;;;-143.83;100.00;62900.06;4929303;29;20082;-69
2022/11/28 07:03:39;;;;;;;8.60;8.20;;;;;;;-143.83;100.00;62900.06;4920403;29;20024;-68
2022/11/28 07:06:06;;;;;;;9.00;8.60;;;;;;;-143.83;100.00;62900.06;4926931;29;20063;-69
2022/11/28 07:08:33;;;;;;;9.38;8.95;;;;;;;-143.83;100.00;62900.06;4911928;29;20473;-69
2022/11/28 07:11:19;;;;;;;8.70;8.30;;;;;;;-143.83;100.00;62900.06;4909685;29;20031;-70
2022/11/28 07:13:45;;;;;;;8.85;8.45;;;;;;;-143.83;100.00;62900.06;4930176;29;20504;-70
2022/11/28 07:16:19;;;;;;;9.38;8.93;;;;;;;-143.83;100.00;62900.06;4923230;29;20039;-70
2022/11/28 07:18:45;;;;;;;9.93;9.43;;;;;;;-143.83;100.00;62900.06;4925862;29;20024;-70
2022/11/28 07:21:13;;;;;;;9.05;8.65;;;;;;;-143.83;100.00;62900.06;4924046;29;20036;-70
2022/11/28 07:23:39;;;;;;;9.73;9.23;;;;;;;-143.83;100.00;62900.06;4927564;29;20112;-69
2022/11/28 07:26:06;;;;;;;9.80;9.30;;;;;;;-143.83;100.00;62900.06;4924040;29;20035;-69
2022/11/28 07:28:33;;;;;;;9.50;9.02;;;;;;;-143.83;100.00;62900.06;4922653;29;20111;-68
2022/11/28 07:31:26;;;;;;;11.25;10.65;;;;;;;-143.83;100.00;62900.06;4917525;29;20035;-70
2022/11/28 07:33:53;;;;;;;9.20;8.80;;;;;;;-143.83;100.00;62900.06;4923113;29;20043;-71
2022/11/28 07:36:23;;;;;;;10.38;9.82;;;;;;;-143.83;100.00;62900.06;4926682;29;20038;-74
2022/11/28 07:38:51;;;;;;;10.63;10.02;;;;;;;-143.83;100.00;62900.06;4924035;29;20110;-71
2022/11/28 07:41:17;;;;;;;9.30;8.90;;;;;;;-143.83;100.00;62900.06;4921583;29;20020;-71
2022/11/28 07:43:45;;;;;;;9.75;9.25;;;;;;;-143.83;100.00;62900.06;4924016;29;20023;-72
2022/11/28 07:46:13;;;;;;;10.30;9.80;;;;;;;-143.83;100.00;62900.06;4920337;29;20134;-68
2022/11/28 07:48:39;;;;;;;9.10;8.70;;;;;;;-143.83;100.00;62900.06;4922897;29;20035;-70
2022/11/28 07:51:07;;;;;;;9.82;9.32;;;;;;;-143.83;100.00;62900.06;4919935;29;20054;-73
2022/11/28 07:53:34;;;;;;;9.63;9.13;;;;;;;-143.83;100.00;62900.06;4923878;29;20036;-71
2022/11/28 07:56:04;;;;;;;9.77;9.27;;;;;;;-143.83;100.00;62900.06;4921288;29;20728;-72
2022/11/28 07:58:30;;;;;;;9.55;9.13;;;;;;;-143.83;100.00;62900.06;4924482;29;20036;-69
2022/11/28 08:00:55;;;;;;;9.70;9.20;;;;;;;-143.83;100.00;62900.06;4921980;29;20024;-71
2022/11/28 08:03:21;;;;;;;10.18;9.68;;;;;;;-143.83;100.00;62900.06;4921859;29;20047;-71
2022/11/28 08:05:48;;;;;;;10.05;9.55;;;;;;;-143.83;100.00;62900.06;4921960;29;20032;-75
2022/11/28 08:08:17;;;;;;;9.63;9.15;;;;;;;-143.83;100.00;62900.06;4922302;29;20402;-72
2022/11/28 08:10:44;;;;;;;10.23;9.73;;;;;;;-143.83;100.00;62900.06;4907893;29;20132;-72
2022/11/28 08:13:11;;;;;;;10.20;9.70;;;;;;;-143.83;100.00;62900.06;4924604;29;20032;-72
2022/11/28 08:15:37;;;;;;;10.00;9.50;;;;;;;-143.83;100.00;62900.06;4924089;29;20031;-72
2022/11/28 08:18:03;;;;;;;9.20;8.80;;;;;;;-143.83;100.00;62900.06;4909885;29;20032;-72
2022/11/28 08:20:28;;;;;;;9.70;9.20;;;;;;;-143.83;100.00;62900.06;4923437;29;20024;-69
2022/11/28 08:22:54;;;;;;;9.85;9.35;;;;;;;-143.83;100.00;62900.06;4926588;29;20028;-71
2022/11/28 08:25:20;;;;;;;10.80;10.20;;;;;;;-143.83;100.00;62900.06;4926749;29;20059;-72
2022/11/28 08:27:45;;;;;;;9.45;9.00;;;;;;;-143.83;100.00;62900.06;4926483;29;20052;-72
2022/11/28 08:30:12;;;;;;;10.55;10.00;;;;;;;-143.83;100.00;62900.06;4925259;29;20459;-72
2022/11/28 08:32:37;;;;;;;10.30;9.77;;;;;;;-143.83;100.00;62900.06;4927033;29;20403;-72
2022/11/28 08:35:03;;;;;;;10.90;10.30;;;;;;;-143.83;100.00;62900.06;4927819;29;20027;-71
2022/11/28 08:37:28;;;;;;;9.60;9.10;;;;;;;-143.83;100.00;62900.06;4928525;29;20484;-70
2022/11/28 08:39:54;;;;;;;9.57;9.07;;;;;;;-143.83;100.00;62900.06;4929797;29;20495;-75
2022/11/28 08:42:20;;;;;;;9.85;9.35;;;;;;;-143.83;100.00;62900.06;4928557;29;20035;-73
2022/11/28 08:44:46;;;;;;;9.02;8.63;;;;;;;-143.83;100.00;62900.06;4929707;29;20480;-73
2022/11/28 08:47:11;;;;;;;10.32;9.82;;;;;;;-143.83;100.00;62900.06;4927387;29;20039;-70
2022/11/28 08:49:38;;;;;;;9.95;9.45;;;;;;;-143.83;100.00;62900.06;4922171;29;20035;-74
2022/11/28 08:52:04;;;;;;;9.57;9.10;;;;;;;-143.83;100.00;62900.06;4910849;29;20437;-70
2022/11/28 08:54:29;;;;;;;9.43;9.00;;;;;;;-143.83;100.00;62900.06;4927850;29;20071;-72
2022/11/28 08:56:55;;;;;;;9.82;9.32;;;;;;;-143.83;100.00;62900.06;4926308;29;20047;-72
2022/11/28 08:59:20;;;;;;;10.05;9.55;;;;;;;-143.83;100.00;62900.06;4925485;29;20070;-71
2022/11/28 09:01:46;;;;;;;9.35;8.95;;;;;;;-143.83;100.00;62900.06;4929427;29;20034;-72
2022/11/28 09:04:11;;;;;;;10.27;9.77;;;;;;;-143.83;100.00;62900.06;4911311;29;20398;-67
2022/11/28 09:06:40;;;;;;;9.18;8.77;;;;;;;-143.83;100.00;62900.06;4923229;29;20559;-68
2022/11/28 09:09:07;;;;;;;9.75;9.25;;;;;;;-143.83;100.00;62900.06;4924034;29;20032;-72
2022/11/28 09:11:32;;;;;;;9.25;8.85;;;;;;;-143.83;100.00;62900.06;4910986;29;20031;-70
2022/11/28 09:13:59;;;;;;;9.70;9.20;;;;;;;-143.83;100.00;62900.06;4925071;29;20514;-65
2022/11/28 09:16:24;;;;;;;9.13;8.73;;;;;;;-143.83;100.00;62900.06;4923503;29;20051;-65
2022/11/28 09:18:50;;;;;;;9.27;8.88;;;;;;;-143.83;100.00;62900.06;4924701;29;20032;-65
2022/11/28 09:21:15;;;;;;;9.48;9.07;;;;;;;-143.83;100.00;62900.06;4921541;29;20435;-66
2022/11/28 09:23:43;;;;;;;9.73;9.23;;;;;;;-143.83;100.00;62900.06;4925026;29;20035;-67
2022/11/28 09:26:09;;;;;;;10.18;9.68;;;;;;;-143.83;100.00;62900.06;4919382;29;20139;-66
2022/11/28 09:28:35;;;;;;;11.20;10.60;;;;;;;-143.83;100.00;62900.06;4920375;29;20032;-66
2022/11/28 09:31:03;;;;;;;9.85;9.35;;;;;;;-143.83;100.00;62900.06;4929692;29;20044;-67
2022/11/28 09:33:29;;;;;;;9.65;9.15;;;;;;;-143.83;100.00;62900.06;4912426;29;20038;-66
2022/11/28 09:35:55;;;;;;;9.55;9.07;;;;;;;-143.83;100.00;62900.06;4929383;29;20106;-66
2022/11/28 09:38:21;;;;;;;9.32;8.93;;;;;;;-143.83;100.00;62900.06;4928287;29;20047;-67
2022/11/28 09:40:47;;;;;;;9.45;9.00;;;;;;;-143.83;100.00;62900.06;4930163;29;20039;-67
2022/11/28 09:43:35;;;;;;;9.65;9.15;;;;;;;-143.83;100.00;62900.06;4928702;29;20047;-68
2022/11/28 09:46:06;;;;;;;9.43;9.00;;;;;;;-143.83;100.00;62900.06;4927111;29;20098;-67
2022/11/28 09:48:52;;;;;;;9.82;9.32;;;;;;;-143.83;100.00;62900.06;4929891;29;20036;-66
2022/11/28 09:51:45;;;;;;;10.98;10.38;;;;;;;-143.83;100.00;62900.06;4921542;29;20040;-74
2022/11/28 09:54:16;;;;;;;10.00;9.50;;;;;;;-143.83;100.00;62900.06;4929287;29;20023;-73
2022/11/28 09:56:45;;;;;;;9.40;9.00;;;;;;;-143.83;100.00;62900.06;4926469;29;20059;-74
2022/11/28 09:59:26;;;;;;;10.73;10.13;;;;;;;-143.83;100.00;62900.06;4926725;29;20024;-70
2022/11/28 10:02:37;;;;;;;9.57;9.10;;;;;;;-143.83;100.00;62900.06;4925489;29;20024;-71
2022/11/28 10:05:15;;;;;;;9.30;8.90;;;;;;;-143.83;100.00;62900.06;4925389;29;20070;-70
2022/11/28 10:08:04;;;;;;;10.57;9.98;;;;;;;-143.83;100.00;62900.06;4924448;29;20031;-67
2022/11/28 10:11:02;;;;;;;9.68;9.18;;;;;;;-143.83;100.00;62900.06;4925801;29;20107;-73
2022/11/28 10:13:52;;;;;;;9.77;9.27;;;;;;;-143.83;100.00;62900.06;4922759;29;20044;-71
2022/11/28 10:16:34;;;;;;;9.73;9.23;;;;;;;-143.83;100.00;62900.06;4922740;29;20024;-73
2022/11/28 10:19:04;;;;;;;10.13;9.63;;;;;;;-143.83;100.00;62900.06;4924187;29;20075;-72
2022/11/28 10:21:54;;;;;;;9.93;9.43;;;;;;;-143.83;100.00;62900.06;4926229;29;20484;-73
2022/11/28 10:24:29;;;;;;;9.32;8.90;;;;;;;-143.83;100.00;62900.06;4926588;29;20032;-72
2022/11/28 10:27:01;;;;;;;9.52;9.02;;;;;;;-143.83;100.00;62900.06;4908306;29;20070;-72
2022/11/28 10:29:46;;;;;;;9.20;8.80;;;;;;;-143.83;100.00;62900.06;4923503;29;20028;-72
2022/11/28 10:32:16;;;;;;;9.40;9.00;;;;;;;-143.83;100.00;62900.06;4919712;29;20059;-76
2022/11/28 10:35:00;;;;;;;9.40;8.95;;;;;;;-143.83;100.00;62900.06;4908063;29;20125;-74
2022/11/28 10:37:29;;;;;;;9.13;8.73;;;;;;;-143.83;100.00;62900.06;4923083;29;20031;-72
2022/11/28 10:40:00;;;;;;;9.63;9.13;;;;;;;-143.83;100.00;62900.06;4924801;29;20036;-73
2022/11/28 10:42:38;;;;;;;9.85;9.35;;;;;;;-143.83;100.00;62900.06;4908135;29;20079;-74
2022/11/28 10:45:06;;;;;;;10.85;10.25;;;;;;;-143.83;100.00;62900.06;4922301;29;20059;-69
2022/11/28 10:48:07;;;;;;;9.90;9.40;;;;;;;-143.83;100.00;62900.06;4905174;29;20028;-70
2022/11/28 10:50:39;;;;;;;10.23;9.73;;;;;;;-143.83;100.00;62900.06;4919096;29;20052;-70
2022/11/28 10:53:40;;;;;;;9.65;9.18;;;;;;;-143.83;100.00;62900.06;4924746;29;20044;-71
2022/11/28 10:56:43;;;;;;;11.07;10.48;;;;;;;-143.83;100.00;62900.06;4925826;29;20028;-66
2022/11/28 10:59:20;;;;;;;10.40;9.90;;;;;;;-143.83;100.00;62900.06;4925937;29;20046;-69
2022/11/28 11:01:47;;;;;;;10.15;9.65;;;;;;;-143.83;100.00;62900.06;4925805;29;20080;-68
2022/11/28 11:04:22;;;;;;;11.10;10.50;;;;;;;-143.83;100.00;62900.06;4916333;29;20039;-73
2022/11/28 11:07:18;;;;;;;9.77;9.27;;;;;;;-143.83;100.00;62900.06;4926340;29;20494;-71
2022/11/28 11:09:44;;;;;;;8.90;8.50;;;;;;;-143.83;100.00;62900.06;4907368;29;20044;-72
2022/11/28 11:12:20;;;;;;;10.02;9.52;;;;;;;-143.83;100.00;62900.06;4923494;29;20055;-73
2022/11/28 11:14:45;;;;;;;9.43;8.93;;;;;;;-143.83;100.00;62900.06;4910474;29;20042;-72
2022/11/28 11:17:24;;;;;;;10.13;9.63;;;;;;;-143.83;100.00;62900.06;4924859;29;20020;-72
2022/11/28 11:19:50;;;;;;;9.18;8.77;;;;;;;-143.83;100.00;62900.06;4926605;29;20106;-71
2022/11/28 11:22:21;;;;;;;9.98;9.48;;;;;;;-143.83;100.00;62900.06;4924343;29;20460;-69
2022/11/28 11:25:11;;;;;;;9.55;9.05;;;;;;;-143.83;100.00;62900.06;4925141;29;20030;-70
2022/11/28 11:27:45;;;;;;;9.95;9.45;;;;;;;-143.83;100.00;62900.06;4924222;29;20071;-71